Acacia Lake, Texas
Current Conditions -  °F | °C
As of 11:53 AM on Friday 31 Oct 2014 (Local Time) from KBRO Reporting Station
Overcast Overcast  
Wind Chill: 84°   Ceiling: 11000
Heat Index: 88°   Visibility: 10mi
Dew Point: 69°   Wind: 8mph
Humidity: 61%   Direction: 300°WNW
Pressure: 30.15"   Gusts: NA
Location:  26.0002°N, 97.5729°W
Report Text: KBRO 311653Z 30007KT 10SM SCT031 OVC110 29/21 A3015 RMK AO2 SLP209 T02890206
Loading
Personal Weather Stations






























Interactive Weather Map
Tropical Storm Tracking
New forecast layout! Learn more

10-Day Weather Forecast

Advertisements
Track Severe Weather on mobile